createdAt,value
2022-10-16T00:00:43.955Z,6.25
2022-10-16T00:03:16.792Z,4.85
2022-10-16T00:05:50.347Z,5.65
2022-10-16T00:08:21.822Z,4.72
2022-10-16T00:11:02.035Z,5.38
2022-10-16T00:13:35.881Z,5.97
2022-10-16T00:18:33.237Z,4.13
2022-10-16T00:21:15.796Z,5.22
2022-10-16T00:24:08.006Z,4.60
2022-10-16T00:26:38.850Z,5.97
2022-10-16T00:29:11.049Z,3.63
2022-10-16T00:31:41.065Z,5.00
2022-10-16T00:34:13.189Z,5.05
2022-10-16T00:36:48.559Z,5.80
2022-10-16T00:39:17.096Z,5.03
2022-10-16T00:41:46.603Z,4.70
2022-10-16T00:45:05.097Z,4.43
2022-10-16T00:47:53.334Z,6.55
2022-10-16T00:50:32.760Z,3.63
2022-10-16T00:53:07.046Z,7.97
2022-10-16T00:55:41.713Z,9.57
2022-10-16T00:58:16.963Z,4.00
2022-10-16T01:00:50.418Z,4.10
2022-10-16T01:03:47.832Z,5.22
2022-10-16T01:06:27.793Z,3.47
2022-10-16T01:09:21.205Z,5.70
2022-10-16T01:12:03.315Z,5.30
2022-10-16T01:14:59.085Z,6.70
2022-10-16T01:20:46.484Z,5.00
2022-10-16T01:23:24.258Z,4.72
2022-10-16T01:26:24.441Z,4.78
2022-10-16T01:29:00.091Z,4.15
2022-10-16T01:34:27.707Z,4.57
2022-10-16T01:37:10.936Z,3.83
2022-10-16T01:39:45.498Z,6.95
2022-10-16T01:42:20.376Z,5.88
2022-10-16T01:44:52.177Z,6.28
2022-10-16T01:47:27.494Z,5.40
2022-10-16T01:50:01.978Z,4.30
2022-10-16T01:52:32.146Z,4.80
2022-10-16T01:55:09.241Z,4.43
2022-10-16T01:57:44.424Z,6.22
2022-10-16T02:00:22.974Z,5.50
2022-10-16T02:02:57.766Z,6.25
2022-10-16T02:05:50.703Z,5.93
2022-10-16T02:08:29.016Z,6.93
2022-10-16T02:11:04.631Z,4.10
2022-10-16T02:13:43.078Z,5.03
2022-10-16T02:16:19.096Z,4.53
2022-10-16T02:18:53.732Z,6.45
2022-10-16T02:21:30.913Z,6.32
2022-10-16T02:24:21.958Z,4.55
2022-10-16T02:27:11.564Z,6.60
2022-10-16T02:29:49.386Z,5.40
2022-10-16T02:32:36.943Z,7.13
2022-10-16T02:35:08.115Z,4.32
2022-10-16T02:37:40.256Z,4.65
2022-10-16T02:40:13.145Z,5.18
2022-10-16T02:42:45.240Z,4.43
2022-10-16T02:45:28.067Z,3.38
2022-10-16T02:48:00.452Z,5.10
2022-10-16T02:50:32.272Z,4.57
2022-10-16T02:53:02.446Z,5.85
2022-10-16T02:55:34.234Z,6.35
2022-10-16T02:58:04.188Z,4.60
2022-10-16T03:00:33.197Z,4.68
2022-10-16T03:03:03.914Z,3.67
2022-10-16T03:05:34.450Z,5.80
2022-10-16T03:08:03.059Z,4.55
2022-10-16T03:10:31.967Z,5.93
2022-10-16T03:13:03.656Z,3.97
2022-10-16T03:15:33.429Z,8.27
2022-10-16T03:18:04.707Z,6.88
2022-10-16T03:20:33.191Z,5.07
2022-10-16T03:23:09.436Z,6.50
2022-10-16T03:25:40.308Z,4.05
2022-10-16T03:28:10.904Z,5.43
2022-10-16T03:30:43.272Z,7.38
2022-10-16T03:33:17.333Z,11.40
2022-10-16T03:35:56.868Z,9.07
2022-10-16T03:38:30.063Z,6.50
2022-10-16T03:41:06.463Z,5.67
2022-10-16T03:43:35.807Z,5.07
2022-10-16T03:46:10.873Z,4.10
2022-10-16T03:48:44.663Z,5.97
2022-10-16T03:51:13.884Z,4.75
2022-10-16T03:53:45.304Z,5.03
2022-10-16T03:56:17.137Z,6.88
2022-10-16T03:58:48.206Z,7.50
2022-10-16T04:01:23.926Z,6.50
2022-10-16T04:03:55.579Z,7.18
2022-10-16T04:06:27.325Z,5.40
2022-10-16T04:08:58.258Z,5.40
2022-10-16T04:11:27.252Z,7.10
2022-10-16T04:14:00.587Z,4.75
2022-10-16T04:16:35.607Z,6.75
2022-10-16T04:19:06.623Z,3.40
2022-10-16T04:21:41.011Z,4.43
2022-10-16T04:24:14.250Z,3.63
2022-10-16T04:26:42.616Z,4.38
2022-10-16T04:29:17.811Z,3.67
2022-10-16T04:31:46.050Z,6.50
2022-10-16T04:34:18.458Z,4.32
2022-10-16T04:36:54.325Z,4.68
2022-10-16T04:39:27.080Z,4.15
2022-10-16T04:41:58.323Z,4.28
2022-10-16T04:44:31.091Z,4.20
2022-10-16T04:47:04.115Z,2.90
2022-10-16T04:49:38.195Z,5.67
2022-10-16T04:52:12.088Z,6.78
2022-10-16T04:54:46.159Z,5.07
2022-10-16T04:57:26.392Z,5.72
2022-10-16T04:59:57.592Z,9.25
2022-10-16T05:02:29.134Z,5.25
2022-10-16T05:05:03.215Z,9.55
2022-10-16T05:07:37.588Z,14.73
2022-10-16T05:10:09.094Z,11.57
2022-10-16T05:12:38.986Z,3.50
2022-10-16T05:15:07.382Z,7.70
2022-10-16T05:17:42.539Z,5.40
2022-10-16T05:20:17.141Z,4.72
2022-10-16T05:25:18.263Z,3.70
2022-10-16T05:27:52.087Z,4.13
2022-10-16T05:30:23.376Z,5.07
2022-10-16T05:32:52.901Z,5.80
2022-10-16T05:35:25.374Z,7.25
2022-10-16T05:37:56.793Z,6.13
2022-10-16T05:40:27.756Z,5.40
2022-10-16T05:42:59.509Z,5.60
2022-10-16T05:45:32.359Z,4.63
2022-10-16T05:48:03.109Z,3.70
2022-10-16T05:50:34.408Z,6.07
2022-10-16T05:53:07.893Z,6.20
2022-10-16T05:55:40.809Z,6.35
2022-10-16T05:58:10.009Z,4.13
2022-10-16T06:00:42.424Z,7.25
2022-10-16T06:03:15.553Z,2.95
2022-10-16T06:05:48.364Z,9.77
2022-10-16T06:08:23.251Z,7.45
2022-10-16T06:11:10.364Z,3.20
2022-10-16T06:13:43.820Z,4.40
2022-10-16T06:16:21.427Z,4.50
2022-10-16T06:19:02.456Z,4.32
2022-10-16T06:21:32.120Z,4.00
2022-10-16T06:24:02.487Z,3.28
2022-10-16T06:26:36.758Z,4.18
2022-10-16T06:29:08.811Z,7.35
2022-10-16T06:31:45.123Z,5.10
2022-10-16T06:34:15.932Z,4.80
2022-10-16T06:36:49.146Z,6.13
2022-10-16T06:39:23.338Z,5.28
2022-10-16T06:44:45.891Z,5.60
2022-10-16T06:47:18.929Z,5.10
2022-10-16T06:49:53.482Z,6.53
2022-10-16T06:52:24.610Z,3.70
2022-10-16T06:54:53.358Z,11.20
2022-10-16T06:57:26.128Z,7.93
2022-10-16T07:00:01.496Z,3.67
2022-10-16T07:02:36.223Z,4.03
2022-10-16T07:05:13.628Z,3.50
2022-10-16T07:07:48.141Z,3.50
2022-10-16T07:10:20.329Z,3.10
2022-10-16T07:12:50.617Z,3.25
2022-10-16T07:15:22.593Z,3.20
2022-10-16T07:18:01.348Z,3.22
2022-10-16T07:20:39.796Z,2.90
2022-10-16T07:23:10.214Z,3.20
2022-10-16T07:25:46.142Z,3.33
2022-10-16T07:28:16.823Z,3.20
2022-10-16T07:30:47.350Z,3.60
2022-10-16T07:33:16.700Z,3.40
2022-10-16T07:35:57.784Z,4.90
2022-10-16T07:38:28.556Z,3.38
2022-10-16T07:41:11.800Z,3.60
2022-10-16T07:43:46.588Z,3.50
2022-10-16T07:48:56.479Z,3.47
2022-10-16T07:51:33.693Z,3.17
2022-10-16T07:54:12.558Z,4.20
2022-10-16T07:56:44.027Z,3.33
2022-10-16T07:59:31.779Z,3.28
2022-10-16T08:04:45.227Z,3.00
2022-10-16T08:10:10.302Z,3.25
2022-10-16T08:12:44.031Z,4.15
2022-10-16T08:18:00.349Z,3.85
2022-10-16T08:20:30.261Z,3.70
2022-10-16T08:22:59.637Z,3.45
2022-10-16T08:25:32.589Z,4.30
2022-10-16T08:28:12.044Z,4.43
2022-10-16T08:30:42.387Z,4.00
2022-10-16T08:33:09.924Z,3.67
2022-10-16T08:35:42.043Z,3.42
2022-10-16T08:38:16.893Z,7.03
2022-10-16T08:40:46.538Z,4.97
2022-10-16T08:43:32.801Z,4.68
2022-10-16T08:46:50.586Z,4.72
2022-10-16T08:49:21.641Z,5.18
2022-10-16T08:51:53.418Z,3.75
2022-10-16T08:54:44.437Z,4.10
2022-10-16T08:57:23.182Z,4.13
2022-10-16T08:59:52.996Z,4.03
2022-10-16T09:02:36.067Z,3.88
2022-10-16T09:05:15.225Z,3.90
2022-10-16T09:08:09.266Z,3.35
2022-10-16T09:10:43.569Z,3.42
2022-10-16T09:13:34.835Z,2.88
2022-10-16T09:16:46.282Z,3.33
2022-10-16T09:19:29.941Z,3.40
2022-10-16T09:21:57.528Z,3.75
2022-10-16T09:24:29.361Z,3.88
2022-10-16T09:26:56.702Z,3.25
2022-10-16T09:29:26.523Z,3.97
2022-10-16T09:31:55.997Z,3.42
2022-10-16T09:34:31.983Z,3.58
2022-10-16T09:37:01.487Z,3.35
2022-10-16T09:39:28.616Z,3.55
2022-10-16T09:41:57.199Z,3.83
2022-10-16T09:44:32.869Z,3.42
2022-10-16T09:47:21.163Z,4.35
2022-10-16T09:50:03.267Z,3.80
2022-10-16T09:52:31.861Z,4.30
2022-10-16T09:55:01.948Z,4.28
2022-10-16T09:57:31.785Z,4.15
2022-10-16T09:59:59.882Z,3.90
2022-10-16T10:02:31.899Z,4.50
2022-10-16T10:04:59.072Z,5.00
2022-10-16T10:07:28.982Z,4.07
2022-10-16T10:09:58.477Z,3.60
2022-10-16T10:12:28.322Z,3.92
2022-10-16T10:15:04.745Z,3.80
2022-10-16T10:17:32.008Z,4.40
2022-10-16T10:20:24.013Z,3.58
2022-10-16T10:22:51.254Z,4.30
2022-10-16T10:25:24.277Z,4.38
2022-10-16T10:27:58.291Z,3.97
2022-10-16T10:30:28.571Z,4.03
2022-10-16T10:33:17.644Z,3.35
2022-10-16T10:36:05.549Z,3.70
2022-10-16T10:38:50.239Z,3.78
2022-10-16T10:41:48.276Z,3.35
2022-10-16T10:44:42.416Z,3.75
2022-10-16T10:47:28.270Z,4.30
2022-10-16T10:50:04.346Z,3.70
2022-10-16T10:52:40.094Z,3.70
2022-10-16T10:55:37.940Z,4.07
2022-10-16T10:58:14.204Z,4.10
2022-10-16T11:01:03.064Z,4.25
2022-10-16T11:03:43.720Z,4.22
2022-10-16T11:06:30.526Z,3.45
2022-10-16T11:09:10.771Z,3.47
2022-10-16T11:11:44.793Z,3.85
2022-10-16T11:14:27.455Z,3.63
2022-10-16T11:17:02.348Z,3.72
2022-10-16T11:19:46.216Z,4.22
2022-10-16T11:22:25.051Z,3.88
2022-10-16T11:24:56.931Z,4.07
2022-10-16T11:27:41.160Z,3.75
2022-10-16T11:30:21.678Z,4.18
2022-10-16T11:33:07.434Z,3.90
2022-10-16T11:36:12.830Z,4.18
2022-10-16T11:38:45.782Z,4.28
2022-10-16T11:41:24.980Z,4.30
2022-10-16T11:44:12.432Z,3.28
2022-10-16T11:46:59.013Z,4.15
2022-10-16T11:49:28.983Z,3.55
2022-10-16T11:52:31.714Z,3.88
2022-10-16T11:55:24.738Z,3.38
2022-10-16T11:57:58.780Z,4.45
2022-10-16T12:00:33.011Z,4.30
2022-10-16T12:03:23.721Z,4.55
2022-10-16T12:06:07.820Z,3.90
2022-10-16T12:08:36.122Z,4.00
2022-10-16T12:11:40.866Z,3.17
2022-10-16T12:14:13.591Z,3.97
2022-10-16T12:17:00.740Z,3.80
2022-10-16T12:19:30.708Z,4.57
2022-10-16T12:22:00.523Z,4.00
2022-10-16T12:24:42.993Z,4.65
2022-10-16T12:27:36.717Z,4.05
2022-10-16T12:30:09.621Z,4.32
2022-10-16T12:32:48.512Z,4.10
2022-10-16T12:35:22.862Z,6.72
2022-10-16T12:37:50.804Z,7.65
2022-10-16T12:40:33.789Z,4.10
2022-10-16T12:43:28.951Z,5.05
2022-10-16T12:46:08.870Z,4.78
2022-10-16T12:48:48.910Z,4.68
2022-10-16T12:51:28.766Z,4.18
2022-10-16T12:54:13.716Z,4.35
2022-10-16T12:56:53.652Z,4.68
2022-10-16T12:59:36.005Z,4.10
2022-10-16T13:02:21.544Z,4.32
2022-10-16T13:05:04.829Z,3.60
2022-10-16T13:08:16.764Z,4.37
2022-10-16T13:11:07.424Z,4.72
2022-10-16T13:14:17.254Z,3.75
2022-10-16T13:17:08.595Z,3.78
2022-10-16T13:20:06.747Z,3.70
2022-10-16T13:22:51.619Z,5.00
2022-10-16T13:25:48.804Z,3.63
2022-10-16T13:28:18.952Z,3.25
2022-10-16T13:30:53.834Z,4.00
2022-10-16T13:33:37.342Z,3.75
2022-10-16T13:36:05.822Z,3.67
2022-10-16T13:38:35.215Z,3.78
2022-10-16T13:41:17.044Z,4.97
2022-10-16T13:43:48.842Z,4.03
2022-10-16T13:46:24.110Z,3.50
2022-10-16T13:49:01.263Z,3.40
2022-10-16T13:51:31.629Z,3.35
2022-10-16T13:53:59.735Z,3.42
2022-10-16T13:56:29.820Z,4.63
2022-10-16T13:59:22.911Z,3.67
2022-10-16T14:01:51.411Z,3.85
2022-10-16T14:04:19.054Z,3.75
2022-10-16T14:06:49.888Z,3.45
2022-10-16T14:09:31.570Z,3.83
2022-10-16T14:12:04.980Z,3.78
2022-10-16T14:17:04.363Z,3.28
2022-10-16T14:19:32.480Z,4.10
2022-10-16T14:22:02.505Z,5.63
2022-10-16T14:24:36.461Z,5.45
2022-10-16T14:27:24.013Z,3.97
2022-10-16T14:29:51.326Z,3.22
2022-10-16T14:32:29.178Z,4.40
2022-10-16T14:34:56.662Z,5.05
2022-10-16T14:37:29.998Z,7.07
2022-10-16T14:42:32.186Z,7.20
2022-10-16T14:44:59.538Z,5.05
2022-10-16T14:47:28.371Z,4.70
2022-10-16T14:50:00.708Z,4.22
2022-10-16T14:52:27.845Z,4.38
2022-10-16T14:54:56.167Z,4.90
2022-10-16T14:57:31.700Z,5.45
2022-10-16T14:59:59.002Z,5.72
2022-10-16T15:02:37.645Z,6.82
2022-10-16T15:05:27.322Z,7.43
2022-10-16T15:07:56.231Z,6.50
2022-10-16T15:10:26.961Z,5.38
2022-10-16T15:12:54.169Z,5.95
2022-10-16T15:15:24.064Z,5.45
2022-10-16T15:17:54.482Z,5.00
2022-10-16T15:20:21.761Z,5.80
2022-10-16T15:22:48.838Z,7.18
2022-10-16T15:25:28.903Z,9.27
2022-10-16T15:27:56.048Z,11.88
2022-10-16T15:30:23.277Z,12.30
2022-10-16T15:32:50.999Z,10.18
2022-10-16T15:35:18.164Z,9.90
2022-10-16T15:37:45.246Z,9.18
2022-10-16T15:40:12.539Z,8.70
2022-10-16T15:42:39.918Z,8.35
2022-10-16T15:45:08.047Z,8.90
2022-10-16T15:47:35.248Z,8.07
2022-10-16T15:50:02.653Z,7.90
2022-10-16T15:52:32.716Z,7.00
2022-10-16T15:55:00.207Z,6.47
2022-10-16T15:57:30.103Z,7.10
2022-10-16T15:59:57.310Z,6.78
2022-10-16T16:02:24.773Z,6.25
2022-10-16T16:04:52.049Z,6.05
2022-10-16T16:07:19.282Z,6.03
2022-10-16T16:09:46.430Z,5.72
2022-10-16T16:12:13.820Z,5.78
2022-10-16T16:14:40.983Z,6.38
2022-10-16T16:17:08.119Z,7.47
2022-10-16T16:19:35.851Z,6.90
2022-10-16T16:22:02.941Z,8.05
2022-10-16T16:24:30.252Z,8.40
2022-10-16T16:26:57.563Z,7.78
2022-10-16T16:29:24.708Z,6.72
2022-10-16T16:31:58.121Z,10.73
2022-10-16T16:34:26.884Z,8.48
2022-10-16T16:36:54.372Z,6.93
2022-10-16T16:39:21.642Z,7.60
2022-10-16T16:41:50.120Z,9.20
2022-10-16T16:44:17.731Z,10.30
2022-10-16T16:46:45.797Z,8.48
2022-10-16T16:49:14.363Z,7.72
2022-10-16T16:51:42.112Z,7.22
2022-10-16T16:54:10.689Z,8.60
2022-10-16T16:56:37.788Z,8.27
2022-10-16T16:59:05.089Z,9.68
2022-10-16T17:01:32.567Z,9.73
2022-10-16T17:04:00.680Z,7.55
2022-10-16T17:06:30.618Z,7.63
2022-10-16T17:08:58.876Z,9.48
2022-10-16T17:11:27.843Z,13.23
2022-10-16T17:13:57.242Z,8.30
2022-10-16T17:16:27.508Z,9.65
2022-10-16T17:18:54.792Z,8.48
2022-10-16T17:21:22.717Z,7.82
2022-10-16T17:23:52.579Z,7.90
2022-10-16T17:26:19.827Z,8.40
2022-10-16T17:28:47.005Z,8.10
2022-10-16T17:31:25.318Z,7.80
2022-10-16T17:33:52.850Z,9.10
2022-10-16T17:36:21.765Z,6.95
2022-10-16T17:38:49.051Z,7.72
2022-10-16T17:41:18.131Z,6.95
2022-10-16T17:43:46.116Z,7.68
2022-10-16T17:46:15.197Z,8.57
2022-10-16T17:48:45.495Z,10.43
2022-10-16T17:51:15.749Z,11.32
2022-10-16T17:53:43.579Z,8.90
2022-10-16T17:56:13.413Z,7.53
2022-10-16T17:58:41.301Z,9.00
2022-10-16T18:01:18.154Z,8.45
2022-10-16T18:03:49.937Z,7.60
2022-10-16T18:06:22.887Z,7.72
2022-10-16T18:08:51.984Z,8.02
2022-10-16T18:11:20.432Z,7.38
2022-10-16T18:13:47.911Z,7.70
2022-10-16T18:16:15.824Z,7.82
2022-10-16T18:18:47.878Z,8.20
2022-10-16T18:21:17.963Z,7.57
2022-10-16T18:23:50.885Z,6.63
2022-10-16T18:26:20.753Z,7.60
2022-10-16T18:28:49.024Z,7.55
2022-10-16T18:31:17.435Z,9.63
2022-10-16T18:33:50.225Z,7.18
2022-10-16T18:36:20.109Z,7.22
2022-10-16T18:38:47.264Z,7.15
2022-10-16T18:41:14.360Z,7.03
2022-10-16T18:43:41.493Z,7.53
2022-10-16T18:46:11.536Z,8.52
2022-10-16T18:48:39.092Z,8.15
2022-10-16T18:51:10.812Z,6.63
2022-10-16T18:53:39.315Z,7.30
2022-10-16T18:56:08.248Z,6.45
2022-10-16T18:58:37.053Z,7.78
2022-10-16T19:01:09.533Z,7.82
2022-10-16T19:03:38.795Z,7.32
2022-10-16T19:06:08.525Z,7.65
2022-10-16T19:08:38.815Z,7.03
2022-10-16T19:11:10.189Z,6.90
2022-10-16T19:13:37.572Z,6.85
2022-10-16T19:16:19.882Z,6.43
2022-10-16T19:18:50.743Z,11.60
2022-10-16T19:21:18.949Z,20.85
2022-10-16T19:23:46.468Z,10.52
2022-10-16T19:26:15.998Z,8.85
2022-10-16T19:28:44.083Z,7.13
2022-10-16T19:31:14.653Z,7.43
2022-10-16T19:33:41.822Z,7.25
2022-10-16T19:36:19.485Z,7.35
2022-10-16T19:38:53.193Z,6.35
2022-10-16T19:41:20.588Z,6.80
2022-10-16T19:43:47.872Z,6.28
2022-10-16T19:46:17.543Z,6.80
2022-10-16T19:48:45.331Z,6.00
2022-10-16T19:51:15.464Z,6.50
2022-10-16T19:53:44.616Z,6.88
2022-10-16T19:56:17.017Z,6.05
2022-10-16T19:58:46.419Z,6.47
2022-10-16T20:01:15.934Z,6.50
2022-10-16T20:03:47.991Z,6.10
2022-10-16T20:06:16.360Z,6.55
2022-10-16T20:08:45.862Z,6.43
2022-10-16T20:11:24.692Z,6.32
2022-10-16T20:13:52.136Z,6.47
2022-10-16T20:16:20.253Z,6.30
2022-10-16T20:18:49.180Z,6.45
2022-10-16T20:21:25.806Z,5.72
2022-10-16T20:23:53.213Z,5.97
2022-10-16T20:26:24.008Z,5.75
2022-10-16T20:28:51.841Z,5.47
2022-10-16T20:31:22.902Z,5.60
2022-10-16T20:33:51.226Z,5.95
2022-10-16T20:36:19.953Z,4.95
2022-10-16T20:38:47.361Z,6.18
2022-10-16T20:41:16.342Z,5.45
2022-10-16T20:43:47.155Z,5.40
2022-10-16T20:46:17.568Z,5.72
2022-10-16T20:48:46.790Z,5.60
2022-10-16T20:51:18.720Z,5.68
2022-10-16T20:53:47.574Z,6.20
2022-10-16T20:56:17.445Z,5.88
2022-10-16T20:58:45.945Z,5.13
2022-10-16T21:01:16.049Z,5.30
2022-10-16T21:03:44.986Z,5.72
2022-10-16T21:06:12.411Z,5.50
2022-10-16T21:08:41.949Z,5.65
2022-10-16T21:11:14.881Z,4.95
2022-10-16T21:13:42.940Z,5.22
2022-10-16T21:16:11.817Z,10.00
2022-10-16T21:18:44.087Z,7.53
2022-10-16T21:21:23.860Z,6.32
2022-10-16T21:23:52.029Z,6.72
2022-10-16T21:26:25.897Z,5.68
2022-10-16T21:29:04.836Z,6.63
2022-10-16T21:31:33.261Z,6.00
2022-10-16T21:34:00.500Z,5.30
2022-10-16T21:36:33.788Z,5.45
2022-10-16T21:39:06.876Z,5.22
2022-10-16T21:41:35.192Z,5.45
2022-10-16T21:44:02.860Z,5.53
2022-10-16T21:46:33.473Z,5.72
2022-10-16T21:49:03.679Z,6.50
2022-10-16T21:51:37.120Z,5.78
2022-10-16T21:54:06.948Z,5.50
2022-10-16T21:56:34.939Z,4.93
2022-10-16T21:59:02.491Z,5.63
2022-10-16T22:01:30.931Z,6.28
2022-10-16T22:03:58.788Z,4.80
2022-10-16T22:06:27.619Z,5.82
2022-10-16T22:08:57.440Z,5.80
2022-10-16T22:11:28.305Z,5.35
2022-10-16T22:13:56.975Z,5.78
2022-10-16T22:16:26.165Z,6.10
2022-10-16T22:18:54.888Z,5.28
2022-10-16T22:21:22.948Z,5.40
2022-10-16T22:23:50.232Z,5.80
2022-10-16T22:26:17.592Z,5.45
2022-10-16T22:28:44.725Z,6.65
2022-10-16T22:31:13.856Z,5.93
2022-10-16T22:33:41.173Z,5.45
2022-10-16T22:36:12.214Z,5.90
2022-10-16T22:38:39.522Z,5.43
2022-10-16T22:41:09.744Z,6.70
2022-10-16T22:43:39.084Z,6.60
2022-10-16T22:46:08.448Z,6.93
2022-10-16T22:48:36.265Z,8.27
2022-10-16T22:51:04.901Z,6.75
2022-10-16T22:53:32.576Z,6.15
2022-10-16T22:55:59.805Z,6.50
2022-10-16T22:58:27.012Z,7.32
2022-10-16T23:00:54.200Z,5.40
2022-10-16T23:03:21.575Z,12.35
2022-10-16T23:05:48.814Z,8.80
2022-10-16T23:08:16.123Z,12.68
2022-10-16T23:10:46.197Z,6.85
2022-10-16T23:13:13.922Z,8.07
2022-10-16T23:15:42.460Z,7.05
2022-10-16T23:18:10.499Z,10.07
2022-10-16T23:20:41.524Z,14.43
2022-10-16T23:23:09.135Z,11.85
2022-10-16T23:25:37.406Z,7.60
2022-10-16T23:28:04.719Z,8.80
2022-10-16T23:30:31.916Z,7.55
2022-10-16T23:32:58.955Z,8.57
2022-10-16T23:35:26.016Z,11.30
2022-10-16T23:37:53.110Z,6.60
2022-10-16T23:40:20.379Z,7.40
2022-10-16T23:42:47.450Z,7.60
2022-10-16T23:45:14.618Z,5.75
2022-10-16T23:47:41.741Z,6.18
2022-10-16T23:50:10.406Z,5.15
2022-10-16T23:52:37.467Z,5.20
2022-10-16T23:55:05.440Z,6.28
2022-10-16T23:57:32.601Z,9.43
2022-10-16T23:59:59.831Z,6.25
